Time;durP1;ratioP1;P1;durP2;ratioP2;P2;SDS_P1;SDS_P2;PMS_P1;PMS_P2;Temp;Humidity;BMP_temperature;BMP_pressure;BME280_temperature;BME280_humidity;BME280_pressure;Samples;Min_cycle;Max_cycle;Signal;HPM_P1;HPM_P2
2021/09/23 00:00:24;;;;;;;32.47;22.90;;;14.80;99.90;;;;;;5086132;28;20208;-80
2021/09/23 00:05:39;;;;;;;25.93;20.57;;;14.80;99.90;;;;;;5087641;28;20192;-82
2021/09/23 00:08:07;;;;;;;27.20;22.50;;;14.80;99.90;;;;;;5087779;28;20272;-82
2021/09/23 00:10:38;;;;;;;35.70;25.77;;;14.80;99.90;;;;;;5088553;28;20257;-80
2021/09/23 00:13:06;;;;;;;26.60;21.73;;;14.80;99.90;;;;;;5088443;28;20211;-82
2021/09/23 00:15:35;;;;;;;33.37;24.13;;;14.80;99.90;;;;;;5087776;28;20235;-80
2021/09/23 00:18:05;;;;;;;32.90;22.77;;;14.80;99.90;;;;;;5087572;28;20201;-81
2021/09/23 00:20:35;;;;;;;33.10;22.43;;;14.80;99.90;;;;;;5087163;28;20203;-80
2021/09/23 00:23:04;;;;;;;27.13;21.43;;;14.80;99.90;;;;;;5087275;28;20212;-82
2021/09/23 00:25:31;;;;;;;32.50;22.57;;;14.80;99.90;;;;;;5087106;28;20211;-78
2021/09/23 00:27:59;;;;;;;33.83;22.23;;;14.80;99.90;;;;;;5087542;28;20805;-81
2021/09/23 00:30:26;;;;;;;28.07;21.77;;;14.80;99.90;;;;;;5086880;28;20774;-80
2021/09/23 00:32:54;;;;;;;26.17;20.77;;;14.80;99.90;;;;;;5087435;28;20208;-81
2021/09/23 00:35:21;;;;;;;24.53;19.53;;;14.80;99.90;;;;;;5068579;28;20235;-82
2021/09/23 00:37:48;;;;;;;28.77;20.07;;;14.80;99.90;;;;;;5086437;28;20204;-81
2021/09/23 00:40:17;;;;;;;29.30;21.40;;;14.80;99.90;;;;;;5084913;28;20239;-80
2021/09/23 00:42:47;;;;;;;26.43;19.83;;;14.80;99.90;;;;;;5085322;28;20212;-81
2021/09/23 00:45:15;;;;;;;26.63;21.10;;;14.80;99.90;;;;;;5087594;28;20200;-82
2021/09/23 00:47:42;;;;;;;26.87;19.93;;;14.90;99.90;;;;;;5101667;28;20216;-80
2021/09/23 00:50:10;;;;;;;25.07;19.27;;;15.00;99.90;;;;;;5105865;28;20204;-82
2021/09/23 00:52:38;;;;;;;25.83;19.03;;;15.00;99.90;;;;;;5099347;28;20204;-81
2021/09/23 00:55:06;;;;;;;24.37;18.93;;;15.00;99.90;;;;;;5086310;28;20619;-81
2021/09/23 00:57:35;;;;;;;23.97;16.30;;;15.10;99.90;;;;;;5085937;28;20218;-81
2021/09/23 01:00:03;;;;;;;21.27;17.80;;;15.10;99.90;;;;;;5092726;28;20208;-81
2021/09/23 01:02:29;;;;;;;23.37;16.67;;;15.20;99.90;;;;;;5106786;28;20199;-79
2021/09/23 01:04:56;;;;;;;22.93;16.67;;;15.20;99.90;;;;;;5107659;28;20920;-80
2021/09/23 01:07:23;;;;;;;23.70;13.70;;;15.30;99.90;;;;;;5098356;28;20203;-82
2021/09/23 01:09:51;;;;;;;14.47;10.17;;;15.40;99.90;;;;;;5086545;28;20196;-81
2021/09/23 01:12:20;;;;;;;12.83;10.00;;;15.60;99.90;;;;;;5086512;28;20607;-81
2021/09/23 01:14:49;;;;;;;18.53;10.33;;;15.80;99.90;;;;;;5101719;28;20235;-79
2021/09/23 01:17:17;;;;;;;16.67;10.23;;;16.10;99.90;;;;;;5106677;28;20231;-82
2021/09/23 01:19:45;;;;;;;19.55;12.70;;;16.30;99.90;;;;;;5106672;28;20219;-81
2021/09/23 01:22:14;;;;;;;19.25;11.98;;;16.40;99.90;;;;;;5086919;28;20204;-81
2021/09/23 01:24:41;;;;;;;19.83;12.05;;;16.50;99.90;;;;;;5086794;28;20212;-82
2021/09/23 01:27:09;;;;;;;20.52;13.45;;;16.70;99.90;;;;;;5086225;28;20193;-84
2021/09/23 01:29:38;;;;;;;22.75;12.57;;;16.80;99.90;;;;;;5086435;28;20208;-83
2021/09/23 01:32:06;;;;;;;21.60;11.93;;;16.90;99.90;;;;;;5088085;28;20591;-82
2021/09/23 01:34:33;;;;;;;16.75;10.88;;;16.90;99.90;;;;;;5088462;28;20208;-84
2021/09/23 01:37:00;;;;;;;18.33;11.02;;;17.00;99.90;;;;;;5087142;28;20224;-80
2021/09/23 01:39:29;;;;;;;20.98;12.55;;;17.00;99.90;;;;;;5086313;28;20217;-80
2021/09/23 01:41:57;;;;;;;18.15;11.25;;;17.10;99.90;;;;;;5087141;28;20944;-82
2021/09/23 01:44:24;;;;;;;14.65;11.15;;;17.10;99.90;;;;;;5085700;28;20192;-83
2021/09/23 01:46:51;;;;;;;17.95;12.20;;;17.20;99.90;;;;;;5086463;28;20204;-82
2021/09/23 01:49:18;;;;;;;19.45;12.85;;;17.20;99.90;;;;;;5086580;28;20650;-81
2021/09/23 01:51:45;;;;;;;23.17;13.20;;;17.20;99.90;;;;;;5086274;28;20195;-82
2021/09/23 01:54:12;;;;;;;18.88;12.40;;;17.20;99.90;;;;;;5086963;28;20219;-83
2021/09/23 01:56:40;;;;;;;20.45;12.40;;;17.30;99.90;;;;;;5087132;28;20224;-81
2021/09/23 01:59:07;;;;;;;20.17;11.90;;;17.30;99.90;;;;;;5086453;28;20200;-78
2021/09/23 02:01:34;;;;;;;23.23;11.93;;;17.40;99.90;;;;;;5086706;28;20239;-82
2021/09/23 02:04:01;;;;;;;26.13;12.98;;;17.30;99.90;;;;;;5086261;28;20207;-80
2021/09/23 02:06:28;;;;;;;19.67;10.95;;;17.30;99.90;;;;;;5085001;28;20212;-81
2021/09/23 02:08:55;;;;;;;20.65;12.18;;;17.40;99.90;;;;;;5086521;28;20562;-82
2021/09/23 02:11:22;;;;;;;22.95;11.60;;;17.40;99.90;;;;;;5085298;28;20230;-83
2021/09/23 02:13:50;;;;;;;21.67;12.35;;;17.40;99.90;;;;;;5086335;28;20200;-85
2021/09/23 02:16:17;;;;;;;21.35;13.60;;;17.40;99.90;;;;;;5085756;28;20230;-83
2021/09/23 02:18:44;;;;;;;22.45;12.30;;;17.40;99.90;;;;;;5085530;28;20200;-82
2021/09/23 02:21:11;;;;;;;26.85;13.68;;;17.40;99.90;;;;;;5084427;28;20201;-82
2021/09/23 02:23:38;;;;;;;30.95;13.55;;;17.40;99.90;;;;;;5086272;28;20200;-82
2021/09/23 02:26:05;;;;;;;26.30;13.25;;;17.40;99.90;;;;;;5086387;28;20203;-84
2021/09/23 02:28:32;;;;;;;24.70;11.52;;;17.40;99.90;;;;;;5085548;28;20341;-81
2021/09/23 02:31:00;;;;;;;22.40;12.90;;;17.40;99.90;;;;;;5085710;28;20212;-82
2021/09/23 02:33:26;;;;;;;19.40;11.82;;;17.40;99.90;;;;;;5085920;28;20200;-83
2021/09/23 02:35:53;;;;;;;27.15;13.77;;;17.40;99.90;;;;;;5090168;28;20208;-82
2021/09/23 02:38:20;;;;;;;33.78;13.95;;;17.40;99.90;;;;;;5090220;28;20207;-80
2021/09/23 02:40:47;;;;;;;26.33;12.90;;;17.40;99.90;;;;;;5089527;28;20414;-81
2021/09/23 02:43:14;;;;;;;26.75;13.82;;;17.40;99.90;;;;;;5090552;28;20281;-81
2021/09/23 02:45:41;;;;;;;24.75;13.70;;;17.40;99.90;;;;;;5089649;28;20197;-79
2021/09/23 02:48:09;;;;;;;26.25;13.48;;;17.40;99.90;;;;;;5089421;28;20212;-81
2021/09/23 02:50:36;;;;;;;27.65;13.20;;;17.40;99.90;;;;;;5089847;28;20212;-81
2021/09/23 02:53:03;;;;;;;31.58;14.65;;;17.40;99.90;;;;;;5088970;28;20197;-82
2021/09/23 02:55:30;;;;;;;26.58;13.25;;;17.40;99.90;;;;;;5088027;28;20196;-80
2021/09/23 02:57:56;;;;;;;24.20;12.55;;;17.40;99.90;;;;;;5089758;28;20232;-82
2021/09/23 03:00:23;;;;;;;27.17;12.75;;;17.50;99.90;;;;;;5108074;28;20204;-81
2021/09/23 03:02:50;;;;;;;22.58;11.68;;;17.50;99.90;;;;;;5109019;28;20515;-83
2021/09/23 03:05:19;;;;;;;24.70;11.80;;;17.50;99.90;;;;;;5110047;28;20208;-82
2021/09/23 03:07:46;;;;;;;26.63;12.82;;;17.50;99.90;;;;;;5108660;28;20218;-83
2021/09/23 03:10:13;;;;;;;24.38;12.70;;;17.50;99.90;;;;;;5108522;28;20211;-84
2021/09/23 03:12:40;;;;;;;24.15;12.93;;;17.50;99.90;;;;;;5107722;28;20210;-79
2021/09/23 03:15:08;;;;;;;22.38;13.40;;;17.50;99.90;;;;;;5109566;28;20185;-82
2021/09/23 03:17:35;;;;;;;24.38;11.77;;;17.60;99.90;;;;;;5090006;28;20238;-84
2021/09/23 03:20:02;;;;;;;29.33;13.15;;;17.60;99.90;;;;;;5089830;28;20205;-81
2021/09/23 03:22:30;;;;;;;28.45;12.38;;;17.60;99.90;;;;;;5089261;28;20224;-82
2021/09/23 03:24:57;;;;;;;24.45;12.48;;;17.60;99.90;;;;;;5089621;28;20201;-82
2021/09/23 03:27:24;;;;;;;20.48;12.68;;;17.70;99.90;;;;;;5100496;28;20278;-82
2021/09/23 03:29:51;;;;;;;19.20;12.25;;;17.70;99.90;;;;;;5110286;28;20519;-84
2021/09/23 03:32:18;;;;;;;27.38;13.88;;;17.70;99.90;;;;;;5109452;28;20238;-84
2021/09/23 03:34:45;;;;;;;24.70;13.48;;;17.70;99.90;;;;;;5108672;28;20212;-84
2021/09/23 03:37:11;;;;;;;18.70;12.10;;;17.70;99.90;;;;;;5108824;28;20285;-83
2021/09/23 03:39:40;;;;;;;23.20;13.65;;;17.70;99.90;;;;;;5109399;28;20717;-83
2021/09/23 03:42:07;;;;;;;20.92;11.73;;;17.70;99.90;;;;;;5081750;28;20208;-82
2021/09/23 03:44:34;;;;;;;19.70;11.95;;;17.70;99.90;;;;;;5089072;28;20213;-83
2021/09/23 03:47:00;;;;;;;21.45;11.27;;;17.70;99.90;;;;;;5089808;28;20192;-80
2021/09/23 03:49:27;;;;;;;21.67;12.13;;;17.70;99.90;;;;;;5090559;28;20204;-82
2021/09/23 03:51:54;;;;;;;23.88;12.77;;;17.70;99.90;;;;;;5107130;28;20588;-80
2021/09/23 03:54:21;;;;;;;23.27;12.50;;;17.70;99.90;;;;;;5092000;28;20253;-82
2021/09/23 03:56:49;;;;;;;22.90;11.82;;;17.60;99.90;;;;;;5089189;28;20224;-80
2021/09/23 03:59:16;;;;;;;21.08;11.80;;;17.60;99.90;;;;;;5089085;28;20212;-83
2021/09/23 04:01:44;;;;;;;18.85;12.32;;;17.60;99.90;;;;;;5088946;28;20204;-82
2021/09/23 04:04:11;;;;;;;16.80;10.85;;;17.60;99.90;;;;;;5087899;28;20219;-82
2021/09/23 04:06:42;;;;;;;19.02;10.43;;;17.70;99.90;;;;;;5086396;28;20200;-81
2021/09/23 04:09:09;;;;;;;15.05;9.05;;;17.70;99.90;;;;;;5087560;28;20292;-82
2021/09/23 04:11:36;;;;;;;28.70;12.85;;;17.70;99.90;;;;;;5087858;28;20246;-82
2021/09/23 04:14:05;;;;;;;20.55;10.38;;;17.70;99.90;;;;;;5087859;28;20208;-82
2021/09/23 04:16:32;;;;;;;14.02;8.93;;;17.70;99.90;;;;;;5088245;28;20220;-82
2021/09/23 04:18:59;;;;;;;15.88;10.20;;;17.60;99.90;;;;;;5087869;28;20213;-85
2021/09/23 04:21:26;;;;;;;15.05;9.45;;;17.60;99.90;;;;;;5087089;28;20211;-82
2021/09/23 04:23:53;;;;;;;14.35;8.48;;;17.60;99.90;;;;;;5088391;28;20311;-83
2021/09/23 04:26:20;;;;;;;14.93;8.50;;;17.60;99.90;;;;;;5104799;28;20218;-81
2021/09/23 04:28:46;;;;;;;17.88;8.95;;;17.50;99.90;;;;;;5109111;28;20819;-82
2021/09/23 04:31:15;;;;;;;14.27;8.30;;;17.60;99.90;;;;;;5107994;28;20610;-83
2021/09/23 04:33:41;;;;;;;17.90;8.85;;;17.50;99.90;;;;;;5090076;28;20564;-83
2021/09/23 04:36:08;;;;;;;13.65;9.48;;;17.50;99.90;;;;;;5087761;28;20588;-80
2021/09/23 04:38:35;;;;;;;16.77;9.40;;;17.50;99.90;;;;;;5087483;28;20240;-82
2021/09/23 04:41:02;;;;;;;20.27;9.00;;;17.50;99.90;;;;;;5088428;28;20236;-83
2021/09/23 04:43:29;;;;;;;14.85;9.27;;;17.50;99.90;;;;;;5088530;28;20208;-82
2021/09/23 04:45:56;;;;;;;17.63;9.55;;;17.50;99.90;;;;;;5090293;28;20219;-80
2021/09/23 04:48:24;;;;;;;21.13;10.02;;;17.50;99.90;;;;;;5107613;28;20210;-81
2021/09/23 04:50:51;;;;;;;14.15;8.55;;;17.40;99.90;;;;;;5108779;28;20506;-81
2021/09/23 04:53:18;;;;;;;14.35;9.30;;;17.30;99.90;;;;;;5106620;28;20207;-81
2021/09/23 04:55:45;;;;;;;18.87;9.67;;;17.20;99.90;;;;;;5088571;28;20205;-81
2021/09/23 04:58:11;;;;;;;13.73;8.80;;;17.20;99.90;;;;;;5087844;28;20236;-81
2021/09/23 05:00:38;;;;;;;17.20;9.07;;;17.20;99.90;;;;;;5089904;28;20207;-81
2021/09/23 05:03:06;;;;;;;14.13;8.73;;;17.20;99.90;;;;;;5093066;28;20200;-82
2021/09/23 05:05:34;;;;;;;12.30;8.70;;;17.10;99.90;;;;;;5114751;28;20219;-80
2021/09/23 05:08:01;;;;;;;10.73;8.25;;;17.10;99.90;;;;;;5105984;28;20204;-81
2021/09/23 05:10:27;;;;;;;12.07;7.78;;;17.10;99.90;;;;;;5093798;28;20204;-80
2021/09/23 05:12:54;;;;;;;14.20;7.33;;;17.00;99.90;;;;;;5094256;28;20207;-81
2021/09/23 05:15:21;;;;;;;10.00;7.00;;;16.90;99.90;;;;;;5091008;28;20195;-79
2021/09/23 05:17:49;;;;;;;11.85;6.28;;;16.90;99.90;;;;;;5087273;28;20250;-82
2021/09/23 05:20:16;;;;;;;9.23;5.80;;;17.00;99.90;;;;;;5085915;28;20209;-82
2021/09/23 05:22:44;;;;;;;10.80;5.47;;;17.00;99.90;;;;;;5085176;28;20659;-80
2021/09/23 05:25:12;;;;;;;7.25;4.85;;;16.90;99.90;;;;;;5086281;28;20212;-82
2021/09/23 05:27:39;;;;;;;9.90;4.70;;;16.90;99.90;;;;;;5087410;28;20207;-81
2021/09/23 05:30:07;;;;;;;11.77;4.67;;;16.90;99.90;;;;;;5086113;28;20212;-81
2021/09/23 05:32:34;;;;;;;7.18;3.75;;;16.90;99.90;;;;;;5086474;28;20207;-80
2021/09/23 05:35:01;;;;;;;5.97;3.30;;;16.90;99.90;;;;;;5086718;28;20203;-82
2021/09/23 05:37:28;;;;;;;6.30;3.50;;;16.90;99.90;;;;;;5085509;28;20227;-81
2021/09/23 05:39:56;;;;;;;7.88;3.42;;;16.90;99.90;;;;;;5086071;28;20252;-81
2021/09/23 05:42:23;;;;;;;7.00;3.83;;;16.90;99.90;;;;;;5084384;28;20185;-81
2021/09/23 05:44:51;;;;;;;8.15;2.92;;;16.90;99.90;;;;;;5084266;28;20204;-80
2021/09/23 05:47:20;;;;;;;8.47;3.13;;;17.00;99.90;;;;;;5087455;28;20279;-84
2021/09/23 05:49:46;;;;;;;8.25;3.38;;;17.00;99.90;;;;;;5087294;28;20219;-83
2021/09/23 05:52:16;;;;;;;6.97;3.57;;;17.00;99.90;;;;;;5086395;28;20209;-82
2021/09/23 05:54:43;;;;;;;6.18;4.00;;;17.00;99.90;;;;;;5087195;28;20287;-82
2021/09/23 05:57:11;;;;;;;8.23;4.80;;;17.00;99.90;;;;;;5087186;28;20320;-82
2021/09/23 05:59:38;;;;;;;6.53;3.72;;;17.00;99.90;;;;;;5085794;28;20889;-80
2021/09/23 06:02:05;;;;;;;9.93;4.30;;;17.00;99.90;;;;;;5087287;28;20216;-84
2021/09/23 06:04:32;;;;;;;7.18;4.15;;;17.00;99.90;;;;;;5087514;28;20204;-80
2021/09/23 06:06:58;;;;;;;8.60;4.50;;;17.00;99.90;;;;;;5087907;28;20211;-86
2021/09/23 06:09:25;;;;;;;10.18;4.80;;;17.00;99.90;;;;;;5090932;28;20200;-83
2021/09/23 06:11:52;;;;;;;6.63;4.37;;;17.00;99.90;;;;;;5091366;28;20196;-80
2021/09/23 06:14:21;;;;;;;7.72;4.80;;;17.00;99.90;;;;;;5090895;28;20201;-81
2021/09/23 06:16:48;;;;;;;11.90;4.73;;;17.10;99.90;;;;;;5090558;28;20200;-84
2021/09/23 06:19:14;;;;;;;8.43;4.27;;;17.10;99.90;;;;;;5091415;28;20208;-84
2021/09/23 06:21:41;;;;;;;8.10;4.80;;;17.10;99.90;;;;;;5091124;28;20216;-82
2021/09/23 06:24:08;;;;;;;9.23;4.72;;;17.10;99.90;;;;;;5091124;28;20515;-82
2021/09/23 06:26:35;;;;;;;9.80;5.15;;;17.10;99.90;;;;;;5090003;28;20200;-84
2021/09/23 06:29:02;;;;;;;15.50;5.10;;;17.10;99.90;;;;;;5102797;28;20204;-80
2021/09/23 06:31:32;;;;;;;10.90;5.22;;;17.10;99.90;;;;;;5110344;28;20278;-85
2021/09/23 06:33:59;;;;;;;8.80;5.57;;;17.10;99.90;;;;;;5110033;28;20215;-80
2021/09/23 06:36:26;;;;;;;14.73;6.38;;;17.10;99.90;;;;;;5109828;28;20559;-80
2021/09/23 06:38:53;;;;;;;10.68;6.32;;;17.20;99.90;;;;;;5110405;28;20223;-78
2021/09/23 06:41:20;;;;;;;11.57;6.23;;;17.20;99.90;;;;;;5095411;28;20275;-81
2021/09/23 06:43:49;;;;;;;9.32;6.35;;;17.20;99.90;;;;;;5090410;28;20213;-81
2021/09/23 06:46:17;;;;;;;9.85;5.32;;;17.30;99.90;;;;;;5092431;28;20764;-81
2021/09/23 06:48:45;;;;;;;14.18;5.93;;;17.30;99.90;;;;;;5109774;28;20250;-84
2021/09/23 06:51:12;;;;;;;16.83;6.63;;;17.30;99.90;;;;;;5109647;28;20196;-83
2021/09/23 06:53:39;;;;;;;9.30;5.30;;;17.30;99.90;;;;;;5089233;28;20921;-81
2021/09/23 06:56:05;;;;;;;11.10;6.13;;;17.40;99.90;;;;;;5089781;28;20204;-85
2021/09/23 06:58:32;;;;;;;11.50;5.82;;;17.40;99.90;;;;;;5090712;28;20267;-83
2021/09/23 07:00:59;;;;;;;13.52;5.65;;;17.40;99.90;;;;;;5090067;28;20551;-82
2021/09/23 07:03:26;;;;;;;12.73;5.40;;;17.50;99.90;;;;;;5081601;28;20209;-86
2021/09/23 07:05:54;;;;;;;12.30;5.32;;;17.50;99.90;;;;;;5089951;28;20204;-79
2021/09/23 07:08:21;;;;;;;8.13;3.97;;;17.50;99.90;;;;;;5089021;28;20898;-79
2021/09/23 07:10:49;;;;;;;12.13;5.25;;;17.60;99.90;;;;;;5088781;28;20262;-83
2021/09/23 07:13:16;;;;;;;7.93;4.50;;;17.60;99.90;;;;;;5068956;28;20204;-82
2021/09/23 07:15:43;;;;;;;10.82;4.50;;;17.60;99.90;;;;;;5089958;28;20611;-85
2021/09/23 07:18:10;;;;;;;14.68;5.07;;;17.60;99.90;;;;;;5089574;28;20231;-82
2021/09/23 07:20:37;;;;;;;10.50;5.18;;;17.60;99.90;;;;;;5098923;28;20200;-83
2021/09/23 07:23:06;;;;;;;6.50;3.33;;;17.60;99.90;;;;;;5108846;28;20192;-82
2021/09/23 07:25:33;;;;;;;9.10;3.72;;;17.60;99.90;;;;;;5110277;28;20206;-84
2021/09/23 07:28:02;;;;;;;6.32;3.25;;;17.70;99.90;;;;;;5092582;28;20664;-78
2021/09/23 07:30:29;;;;;;;7.78;3.33;;;17.70;99.90;;;;;;5088673;28;20281;-83
2021/09/23 07:32:56;;;;;;;11.85;3.65;;;17.60;99.90;;;;;;5089616;28;20201;-83
2021/09/23 07:35:23;;;;;;;12.63;4.05;;;17.70;99.90;;;;;;5083414;28;20196;-79
2021/09/23 07:37:50;;;;;;;6.07;3.40;;;17.70;99.90;;;;;;5087960;28;20896;-82
2021/09/23 07:40:18;;;;;;;7.68;3.15;;;17.70;99.90;;;;;;5089155;27;20244;-79
2021/09/23 07:42:45;;;;;;;9.40;3.83;;;17.70;99.90;;;;;;5110625;28;20210;-80
2021/09/23 07:45:12;;;;;;;9.45;3.30;;;17.70;99.90;;;;;;5108480;28;20285;-80
2021/09/23 07:47:39;;;;;;;7.70;4.00;;;17.70;99.90;;;;;;5088370;28;20216;-81
2021/09/23 07:50:07;;;;;;;7.20;3.08;;;17.70;99.90;;;;;;5108358;28;20204;-81
2021/09/23 07:52:36;;;;;;;5.30;3.50;;;17.70;99.90;;;;;;5100929;28;20308;-83
2021/09/23 07:55:03;;;;;;;7.10;3.10;;;17.70;99.90;;;;;;5106639;28;20192;-81
2021/09/23 07:57:32;;;;;;;6.07;3.17;;;17.70;99.90;;;;;;5118244;27;20196;-82
2021/09/23 07:59:59;;;;;;;6.38;3.17;;;17.70;99.90;;;;;;5108775;28;20524;-80
2021/09/23 08:02:25;;;;;;;8.47;2.60;;;17.70;99.90;;;;;;5087475;28;20209;-83
2021/09/23 08:04:52;;;;;;;7.93;3.20;;;17.70;99.90;;;;;;5088296;28;20506;-79
2021/09/23 08:07:19;;;;;;;8.18;3.60;;;17.70;99.90;;;;;;5088774;28;20201;-85
2021/09/23 08:09:47;;;;;;;10.50;3.88;;;17.80;99.90;;;;;;5081422;28;20302;-80
2021/09/23 08:12:14;;;;;;;8.32;3.58;;;17.80;99.90;;;;;;5088352;28;20506;-83
2021/09/23 08:14:42;;;;;;;9.93;3.10;;;17.90;99.90;;;;;;5087440;28;20196;-84
2021/09/23 08:17:10;;;;;;;9.23;4.20;;;18.00;99.90;;;;;;5087185;28;20208;-86
2021/09/23 08:19:36;;;;;;;7.07;2.38;;;18.10;99.90;;;;;;5087681;28;20282;-85
2021/09/23 08:22:04;;;;;;;8.07;2.70;;;18.10;99.90;;;;;;5088072;28;20200;-82
2021/09/23 08:24:31;;;;;;;8.25;2.90;;;18.00;99.90;;;;;;5087028;28;20611;-86
2021/09/23 08:26:58;;;;;;;6.57;2.75;;;18.00;99.90;;;;;;5087629;28;20208;-81
2021/09/23 08:29:25;;;;;;;7.88;2.70;;;18.10;99.90;;;;;;5093350;28;20227;-85
2021/09/23 08:31:53;;;;;;;12.02;3.30;;;18.00;99.90;;;;;;5106652;28;20212;-83
2021/09/23 08:34:20;;;;;;;7.85;2.70;;;18.00;99.90;;;;;;5094623;28;20250;-84
2021/09/23 08:36:47;;;;;;;8.05;2.88;;;18.00;99.90;;;;;;5087199;28;20204;-81
2021/09/23 08:39:14;;;;;;;11.40;3.50;;;18.00;99.90;;;;;;5086559;28;20228;-81
2021/09/23 08:41:41;;;;;;;7.30;3.15;;;17.90;99.90;;;;;;5092305;28;20235;-83
2021/09/23 08:44:08;;;;;;;12.27;3.55;;;17.90;99.90;;;;;;5091347;28;20265;-84
2021/09/23 08:46:36;;;;;;;12.15;3.17;;;18.00;99.90;;;;;;5087313;28;20204;-85
2021/09/23 08:49:07;;;;;;;10.25;3.63;;;18.10;99.90;;;;;;5087729;28;20616;-81
2021/09/23 08:51:36;;;;;;;7.25;3.95;;;18.30;99.90;;;;;;5092265;28;20204;-83
2021/09/23 08:54:04;;;;;;;10.05;2.63;;;18.40;99.90;;;;;;5087332;28;20707;-85
2021/09/23 08:56:31;;;;;;;7.32;2.60;;;18.60;99.90;;;;;;5087802;28;20208;-83
2021/09/23 08:58:57;;;;;;;8.75;2.53;;;18.50;99.90;;;;;;5087727;28;20231;-83
2021/09/23 09:01:29;;;;;;;5.15;2.58;;;18.50;99.90;;;;;;5087704;28;20201;-84
2021/09/23 09:04:00;;;;;;;10.95;2.60;;;18.50;99.90;;;;;;5087507;28;20319;-86
2021/09/23 09:06:28;;;;;;;8.57;2.97;;;18.60;99.90;;;;;;5086973;28;20502;-81
2021/09/23 09:08:56;;;;;;;11.77;3.17;;;18.60;99.90;;;;;;5087392;28;20965;-80
2021/09/23 09:11:23;;;;;;;10.55;2.83;;;18.60;99.90;;;;;;5087332;28;20784;-82
2021/09/23 09:13:53;;;;;;;10.07;3.03;;;18.60;99.90;;;;;;5088193;28;20197;-83
2021/09/23 09:16:22;;;;;;;9.10;2.38;;;18.70;99.90;;;;;;5087596;28;20196;-79
2021/09/23 09:18:51;;;;;;;6.88;2.55;;;18.80;99.90;;;;;;5088658;28;20227;-84
2021/09/23 09:21:20;;;;;;;8.90;2.40;;;18.90;99.90;;;;;;5087232;28;20211;-81
2021/09/23 09:23:55;;;;;;;6.47;2.53;;;18.90;99.90;;;;;;5088788;28;20209;-85
2021/09/23 09:26:27;;;;;;;11.63;3.10;;;18.90;99.90;;;;;;5088045;28;20192;-82
2021/09/23 09:28:57;;;;;;;11.10;2.67;;;19.10;99.90;;;;;;5087401;28;20205;-85
2021/09/23 09:31:24;;;;;;;4.82;2.35;;;19.20;99.90;;;;;;5086484;28;20212;-81
2021/09/23 09:33:53;;;;;;;4.65;2.00;;;19.10;99.90;;;;;;5102362;28;20217;-84
2021/09/23 09:36:32;;;;;;;6.50;2.05;;;19.20;99.90;;;;;;5106456;28;20198;-84
2021/09/23 09:39:02;;;;;;;10.90;3.17;;;19.30;99.90;;;;;;5098977;28;20643;-82
2021/09/23 09:41:31;;;;;;;7.57;1.95;;;19.40;99.90;;;;;;5088054;28;20232;-82
2021/09/23 09:44:00;;;;;;;10.57;2.58;;;19.50;99.90;;;;;;5087581;28;20430;-83
2021/09/23 09:46:30;;;;;;;11.13;2.38;;;19.60;99.90;;;;;;5087579;28;20262;-80
2021/09/23 09:48:57;;;;;;;12.10;2.92;;;19.70;99.90;;;;;;5088216;28;20199;-83
2021/09/23 09:51:35;;;;;;;9.68;2.67;;;19.80;99.90;;;;;;5086657;28;20212;-87
2021/09/23 09:54:06;;;;;;;9.32;2.97;;;19.90;99.90;;;;;;5087724;28;20287;-82
2021/09/23 09:56:33;;;;;;;8.35;2.40;;;19.90;99.90;;;;;;5087164;28;20399;-86
2021/09/23 09:59:12;;;;;;;8.02;2.38;;;20.10;99.90;;;;;;5088032;28;20217;-82
2021/09/23 10:01:39;;;;;;;9.50;3.30;;;20.10;99.90;;;;;;5105434;28;20235;-83
2021/09/23 10:04:06;;;;;;;9.40;3.72;;;20.10;99.90;;;;;;5105277;28;20207;-83
2021/09/23 10:06:34;;;;;;;9.93;2.80;;;20.30;99.90;;;;;;5107442;28;20216;-85
2021/09/23 10:09:01;;;;;;;8.40;2.63;;;20.50;99.90;;;;;;5089229;28;20501;-85
2021/09/23 10:11:31;;;;;;;9.32;3.42;;;20.70;99.90;;;;;;5086921;28;20204;-84
2021/09/23 10:13:59;;;;;;;12.35;3.60;;;20.80;99.90;;;;;;5089888;28;20208;-86
2021/09/23 10:16:27;;;;;;;7.63;2.83;;;20.90;99.90;;;;;;5108132;28;20198;-83
2021/09/23 10:18:56;;;;;;;12.70;3.17;;;21.00;99.90;;;;;;5096876;28;20224;-82
2021/09/23 10:21:23;;;;;;;8.55;2.83;;;21.10;99.90;;;;;;5088573;28;20200;-84
2021/09/23 10:23:51;;;;;;;10.68;3.10;;;21.30;99.90;;;;;;5088699;28;20196;-84
2021/09/23 10:26:20;;;;;;;6.00;2.47;;;21.60;99.90;;;;;;5086562;28;20390;-81
2021/09/23 10:28:50;;;;;;;6.35;2.63;;;21.70;99.90;;;;;;5087139;28;20205;-85
2021/09/23 10:31:18;;;;;;;9.48;2.30;;;21.50;99.90;;;;;;5087170;28;20200;-83
2021/09/23 10:33:46;;;;;;;8.25;2.88;;;21.30;99.90;;;;;;5084986;28;20212;-84
2021/09/23 10:36:14;;;;;;;10.13;2.45;;;21.30;99.90;;;;;;5084618;28;20211;-80
2021/09/23 10:38:42;;;;;;;10.50;2.90;;;21.10;99.90;;;;;;5084723;28;20220;-82
2021/09/23 10:41:11;;;;;;;11.43;2.50;;;20.90;99.90;;;;;;5085873;28;20823;-81
2021/09/23 10:43:39;;;;;;;10.35;2.75;;;20.80;99.90;;;;;;5086926;28;20639;-86
2021/09/23 10:46:08;;;;;;;10.50;2.80;;;20.60;99.90;;;;;;5085405;28;20635;-84
2021/09/23 10:48:36;;;;;;;9.63;2.47;;;20.50;99.90;;;;;;5085272;28;20205;-84
2021/09/23 10:51:05;;;;;;;6.88;2.40;;;20.30;99.90;;;;;;5084589;28;20212;-85
2021/09/23 10:53:35;;;;;;;14.23;2.83;;;20.30;99.90;;;;;;5096923;28;20235;-85
2021/09/23 10:56:04;;;;;;;8.73;2.65;;;20.20;99.90;;;;;;5109878;28;20204;-85
2021/09/23 10:58:32;;;;;;;11.02;2.58;;;20.00;99.90;;;;;;5109908;28;20192;-83
2021/09/23 11:01:00;;;;;;;9.45;2.90;;;20.00;99.90;;;;;;5109791;28;20208;-83
2021/09/23 11:03:37;;;;;;;12.45;3.03;;;20.00;99.90;;;;;;5094298;28;20214;-85
2021/09/23 11:06:08;;;;;;;12.05;3.00;;;19.90;99.90;;;;;;5112844;28;20199;-84
2021/09/23 11:08:39;;;;;;;13.25;3.03;;;19.90;99.90;;;;;;5112122;28;20191;-83
2021/09/23 11:11:08;;;;;;;8.88;2.72;;;19.90;99.90;;;;;;5109460;28;20194;-82
2021/09/23 11:13:37;;;;;;;12.85;2.90;;;19.90;99.90;;;;;;5090968;28;20232;-84
2021/09/23 11:16:06;;;;;;;10.25;2.60;;;20.00;99.90;;;;;;5090687;28;20878;-86
2021/09/23 11:18:36;;;;;;;7.97;2.55;;;20.00;99.90;;;;;;5091195;28;20822;-84
2021/09/23 11:21:05;;;;;;;11.02;2.65;;;20.10;99.90;;;;;;5102611;28;20207;-81
2021/09/23 11:23:33;;;;;;;8.85;2.50;;;20.10;99.90;;;;;;5111452;28;20192;-84
2021/09/23 11:26:01;;;;;;;7.70;2.63;;;20.20;99.90;;;;;;5109446;28;20207;-86
2021/09/23 11:28:30;;;;;;;9.63;3.05;;;20.30;99.90;;;;;;5102167;28;20500;-84
2021/09/23 11:31:00;;;;;;;12.82;2.63;;;20.40;99.90;;;;;;5090758;28;20201;-83
2021/09/23 11:33:29;;;;;;;8.90;2.72;;;20.40;99.90;;;;;;5090017;28;20497;-81
2021/09/23 11:35:57;;;;;;;5.78;2.22;;;20.70;99.90;;;;;;5091733;28;20204;-84
2021/09/23 11:38:25;;;;;;;10.77;2.80;;;20.80;99.90;;;;;;5091364;28;20269;-84
2021/09/23 11:40:55;;;;;;;8.68;2.72;;;21.00;99.90;;;;;;5090934;28;20236;-86
2021/09/23 11:43:26;;;;;;;8.73;2.72;;;21.00;99.90;;;;;;5090794;28;20235;-87
2021/09/23 11:45:54;;;;;;;6.88;2.35;;;21.10;99.90;;;;;;5091396;28;20239;-83
2021/09/23 11:48:25;;;;;;;8.52;2.38;;;21.10;99.90;;;;;;5090607;28;20185;-80
2021/09/23 11:50:58;;;;;;;8.88;2.25;;;21.00;99.90;;;;;;5091766;28;20515;-84
2021/09/23 11:53:27;;;;;;;11.98;2.20;;;20.90;99.90;;;;;;5091297;28;20291;-85
2021/09/23 11:56:01;;;;;;;7.65;2.20;;;20.80;99.90;;;;;;5092175;28;20502;-81
2021/09/23 11:58:29;;;;;;;7.95;2.47;;;20.60;99.90;;;;;;5111601;28;20199;-86
2021/09/23 12:00:57;;;;;;;13.27;2.50;;;20.60;99.90;;;;;;5112424;28;20558;-85
2021/09/23 12:03:25;;;;;;;7.90;2.67;;;20.60;99.90;;;;;;5111023;28;20326;-85
2021/09/23 12:05:54;;;;;;;7.10;2.47;;;20.60;99.90;;;;;;5111661;28;20549;-86
2021/09/23 12:08:24;;;;;;;11.20;2.88;;;20.60;99.90;;;;;;5112396;28;20332;-87
2021/09/23 12:10:54;;;;;;;8.63;2.35;;;20.60;99.90;;;;;;5093530;28;20201;-87
2021/09/23 12:13:35;;;;;;;11.27;2.85;;;20.60;99.90;;;;;;5091294;28;20189;-89
2021/09/23 12:16:04;;;;;;;8.23;2.38;;;20.70;99.90;;;;;;5090989;28;20196;-86
2021/09/23 12:18:32;;;;;;;7.75;2.00;;;20.60;99.90;;;;;;5107127;28;20919;-82
2021/09/23 12:21:02;;;;;;;7.50;2.47;;;20.60;99.90;;;;;;5108015;28;20236;-83
2021/09/23 12:23:34;;;;;;;5.85;2.10;;;20.60;99.90;;;;;;5088572;28;20295;-83
2021/09/23 12:26:13;;;;;;;5.25;2.45;;;20.60;99.90;;;;;;5088392;28;20208;-82
2021/09/23 12:28:42;;;;;;;12.82;2.58;;;20.60;99.90;;;;;;5088474;28;20226;-83
2021/09/23 12:31:11;;;;;;;7.80;2.13;;;20.70;99.90;;;;;;5088889;28;20208;-81
2021/09/23 12:33:53;;;;;;;6.75;1.85;;;20.70;99.90;;;;;;5094483;28;20200;-84
2021/09/23 12:36:25;;;;;;;7.18;2.45;;;20.70;99.90;;;;;;5107863;28;20736;-83
2021/09/23 12:39:15;;;;;;;13.18;2.72;;;20.60;99.90;;;;;;5088117;28;20214;-81
2021/09/23 12:41:43;;;;;;;8.32;2.47;;;20.60;99.90;;;;;;5087194;28;20244;-82
2021/09/23 12:44:10;;;;;;;9.30;2.25;;;20.50;99.90;;;;;;5086804;28;20211;-83